createdAt,value
2018-07-15T00:02:11.870Z,16.20
2018-07-15T00:04:44.297Z,16.30
2018-07-15T00:09:49.458Z,16.10
2018-07-15T00:12:21.919Z,16.10
2018-07-15T00:14:54.384Z,16.00
2018-07-15T00:17:26.903Z,16.00
2018-07-15T00:19:59.406Z,16.00
2018-07-15T00:22:31.884Z,16.10
2018-07-15T00:25:04.438Z,16.00
2018-07-15T00:27:36.863Z,16.10
2018-07-15T00:30:09.326Z,16.20
2018-07-15T00:32:41.777Z,16.20
2018-07-15T00:35:14.706Z,16.10
2018-07-15T00:37:47.197Z,16.10
2018-07-15T00:40:20.021Z,16.00
2018-07-15T00:42:52.463Z,16.00
2018-07-15T00:45:25.392Z,15.90
2018-07-15T00:47:57.847Z,15.90
2018-07-15T00:50:30.689Z,15.90
2018-07-15T00:53:03.510Z,15.90
2018-07-15T00:55:36.745Z,15.90
2018-07-15T00:58:10.921Z,15.90
2018-07-15T01:00:50.346Z,15.90
2018-07-15T01:03:22.770Z,16.00
2018-07-15T01:05:55.251Z,15.90
2018-07-15T01:08:27.724Z,15.80
2018-07-15T01:11:00.234Z,15.80
2018-07-15T01:13:32.778Z,15.80
2018-07-15T01:16:05.977Z,15.70
2018-07-15T01:18:38.430Z,15.70
2018-07-15T01:21:11.047Z,15.70
2018-07-15T01:23:43.602Z,15.80
2018-07-15T01:26:16.613Z,15.70
2018-07-15T01:28:49.677Z,15.70
2018-07-15T01:31:22.187Z,15.70
2018-07-15T01:33:54.942Z,15.70
2018-07-15T01:36:27.387Z,15.60
2018-07-15T01:38:59.835Z,15.60
2018-07-15T01:41:32.495Z,15.60
2018-07-15T01:44:05.033Z,15.60
2018-07-15T01:46:37.637Z,15.60
2018-07-15T01:49:10.140Z,15.60
2018-07-15T01:51:42.580Z,15.60
2018-07-15T01:54:15.425Z,15.60
2018-07-15T01:56:47.846Z,15.60
2018-07-15T01:59:20.494Z,15.60
2018-07-15T02:01:56.146Z,15.50
2018-07-15T02:04:28.607Z,15.50
2018-07-15T02:07:01.125Z,15.40
2018-07-15T02:09:33.949Z,15.50
2018-07-15T02:12:06.978Z,15.50
2018-07-15T02:14:41.094Z,15.60
2018-07-15T02:17:14.380Z,15.60
2018-07-15T02:19:47.099Z,15.60
2018-07-15T02:22:20.129Z,15.50
2018-07-15T02:24:52.614Z,15.50
2018-07-15T02:27:25.159Z,15.30
2018-07-15T02:32:31.661Z,15.20
2018-07-15T02:35:04.585Z,15.20
2018-07-15T02:37:37.068Z,15.20
2018-07-15T02:40:09.796Z,15.10
2018-07-15T02:42:44.204Z,15.10
2018-07-15T02:45:18.330Z,15.10
2018-07-15T02:47:51.962Z,15.10
2018-07-15T02:50:24.461Z,15.10
2018-07-15T02:52:56.874Z,15.20
2018-07-15T02:55:29.660Z,15.20
2018-07-15T02:58:02.089Z,15.30
2018-07-15T03:00:34.615Z,15.40
2018-07-15T03:03:07.308Z,15.40
2018-07-15T03:05:39.768Z,15.30
2018-07-15T03:08:12.202Z,15.10
2018-07-15T03:10:44.642Z,15.10
2018-07-15T03:13:17.269Z,15.00
2018-07-15T03:18:23.095Z,15.00
2018-07-15T03:20:55.566Z,15.00
2018-07-15T03:23:28.063Z,15.10
2018-07-15T03:26:00.630Z,15.20
2018-07-15T03:28:33.133Z,15.20
2018-07-15T03:31:05.574Z,15.20
2018-07-15T03:33:38.030Z,15.40
2018-07-15T03:38:42.927Z,15.60
2018-07-15T03:41:15.329Z,15.60
2018-07-15T03:43:48.326Z,15.60
2018-07-15T03:46:20.751Z,15.60
2018-07-15T03:48:53.170Z,15.40
2018-07-15T03:51:26.001Z,15.40
2018-07-15T03:53:58.432Z,15.50
2018-07-15T03:56:30.859Z,15.60
2018-07-15T03:59:03.279Z,15.60
2018-07-15T04:01:35.725Z,15.70
2018-07-15T04:04:11.697Z,15.60
2018-07-15T04:06:44.108Z,15.70
2018-07-15T04:09:16.595Z,15.70
2018-07-15T04:11:49.016Z,15.60
2018-07-15T04:14:21.402Z,15.60
2018-07-15T04:16:53.856Z,15.60
2018-07-15T04:19:26.260Z,15.70
2018-07-15T04:21:58.704Z,15.70
2018-07-15T04:24:31.210Z,15.90
2018-07-15T04:27:03.739Z,15.90
2018-07-15T04:29:36.228Z,15.80
2018-07-15T04:32:08.635Z,15.80
2018-07-15T04:34:41.032Z,15.90
2018-07-15T04:37:13.447Z,15.90
2018-07-15T04:39:45.913Z,15.70
2018-07-15T04:42:18.320Z,15.70
2018-07-15T04:44:50.837Z,15.60
2018-07-15T04:47:23.278Z,15.60
2018-07-15T04:49:55.649Z,15.70
2018-07-15T04:52:28.078Z,15.70
2018-07-15T04:55:00.502Z,15.70
2018-07-15T04:57:33.104Z,15.70
2018-07-15T05:00:05.859Z,15.80
2018-07-15T05:02:38.521Z,15.70
2018-07-15T05:05:11.034Z,15.70
2018-07-15T05:07:43.497Z,15.70
2018-07-15T05:10:15.926Z,15.70
2018-07-15T05:12:48.357Z,15.70
2018-07-15T05:15:20.794Z,15.70
2018-07-15T05:17:53.959Z,16.00
2018-07-15T05:20:26.436Z,16.00
2018-07-15T05:22:58.893Z,16.00
2018-07-15T05:25:31.444Z,16.00
2018-07-15T05:28:03.960Z,16.00
2018-07-15T05:30:36.418Z,16.10
2018-07-15T05:33:09.171Z,16.20
2018-07-15T05:35:41.631Z,16.10
2018-07-15T05:38:14.225Z,16.20
2018-07-15T05:40:46.658Z,16.40
2018-07-15T05:43:19.097Z,16.50
2018-07-15T05:45:51.598Z,16.60
2018-07-15T05:48:24.077Z,16.60
2018-07-15T05:50:56.651Z,16.70
2018-07-15T05:53:29.120Z,16.80
2018-07-15T05:56:01.574Z,16.80
2018-07-15T06:01:06.719Z,16.90
2018-07-15T06:03:39.173Z,16.90
2018-07-15T06:06:12.005Z,16.90
2018-07-15T06:08:45.117Z,17.00
2018-07-15T06:11:17.607Z,17.10
2018-07-15T06:16:22.480Z,17.20
2018-07-15T06:18:55.062Z,17.20
2018-07-15T06:21:27.495Z,17.20
2018-07-15T06:23:59.878Z,17.40
2018-07-15T06:26:34.146Z,17.30
2018-07-15T06:29:06.589Z,17.30
2018-07-15T06:31:39.056Z,17.40
2018-07-15T06:34:11.672Z,17.50
2018-07-15T06:36:44.098Z,17.40
2018-07-15T06:41:48.997Z,17.50
2018-07-15T06:44:21.566Z,17.60
2018-07-15T06:49:26.838Z,17.60
2018-07-15T06:51:59.285Z,17.50
2018-07-15T06:54:31.715Z,17.70
2018-07-15T06:59:36.892Z,17.90
2018-07-15T07:02:09.331Z,17.80
2018-07-15T07:07:14.327Z,18.00
2018-07-15T07:09:46.805Z,18.00
2018-07-15T07:12:19.246Z,18.10
2018-07-15T07:14:51.974Z,18.10
2018-07-15T07:17:24.414Z,18.20
2018-07-15T07:19:56.808Z,18.20
2018-07-15T07:22:29.772Z,18.30
2018-07-15T07:25:02.240Z,18.40
2018-07-15T07:27:34.836Z,18.30
2018-07-15T07:30:07.325Z,18.20
2018-07-15T07:32:39.785Z,18.10
2018-07-15T07:35:12.251Z,18.20
2018-07-15T07:37:45.051Z,18.40
2018-07-15T07:40:17.532Z,18.50
2018-07-15T07:42:50.569Z,18.50
2018-07-15T07:45:23.423Z,18.50
2018-07-15T07:47:58.269Z,18.50
2018-07-15T07:50:31.082Z,18.40
2018-07-15T07:53:03.995Z,18.50
2018-07-15T07:55:36.451Z,18.60
2018-07-15T07:58:09.271Z,18.60
2018-07-15T08:00:41.698Z,18.70
2018-07-15T08:03:14.143Z,18.90
2018-07-15T08:05:47.079Z,19.00
2018-07-15T08:08:19.711Z,18.90
2018-07-15T08:10:52.151Z,19.10
2018-07-15T08:13:24.797Z,19.20
2018-07-15T08:15:57.162Z,19.30
2018-07-15T08:18:29.583Z,19.00
2018-07-15T08:21:02.307Z,18.70
2018-07-15T08:23:34.775Z,18.80
2018-07-15T08:26:07.481Z,19.00
2018-07-15T08:28:40.051Z,19.20
2018-07-15T08:31:15.537Z,19.40
2018-07-15T08:33:47.995Z,19.40
2018-07-15T08:36:20.865Z,19.30
2018-07-15T08:38:53.337Z,19.20
2018-07-15T08:41:26.362Z,19.20
2018-07-15T08:46:31.296Z,19.30
2018-07-15T08:49:03.939Z,19.30
2018-07-15T08:51:36.591Z,19.30
2018-07-15T08:54:09.061Z,19.50
2018-07-15T08:56:41.828Z,19.60
2018-07-15T09:01:47.361Z,19.70
2018-07-15T09:04:19.854Z,19.80
2018-07-15T09:06:52.554Z,19.90
2018-07-15T09:09:25.038Z,20.00
2018-07-15T09:11:58.021Z,20.10
2018-07-15T09:14:30.707Z,19.90
2018-07-15T09:17:03.174Z,19.60
2018-07-15T09:19:35.996Z,19.70
2018-07-15T09:22:10.588Z,19.90
2018-07-15T09:24:43.034Z,19.90
2018-07-15T09:27:16.279Z,20.10
2018-07-15T09:29:49.040Z,20.30
2018-07-15T09:32:21.523Z,20.40
2018-07-15T09:34:53.986Z,20.40
2018-07-15T09:37:26.947Z,20.30
2018-07-15T09:40:04.828Z,20.20
2018-07-15T09:42:38.048Z,20.30
2018-07-15T09:45:11.778Z,20.50
2018-07-15T09:47:44.838Z,20.70
2018-07-15T09:50:20.887Z,20.80
2018-07-15T09:52:54.381Z,20.60
2018-07-15T09:55:26.903Z,20.50
2018-07-15T09:57:59.376Z,20.50
2018-07-15T10:00:37.622Z,20.50
2018-07-15T10:03:10.132Z,20.50
2018-07-15T10:05:42.922Z,20.50
2018-07-15T10:08:15.490Z,20.60
2018-07-15T10:10:47.968Z,20.80
2018-07-15T10:13:20.949Z,20.70
2018-07-15T10:15:55.802Z,21.00
2018-07-15T10:18:28.366Z,21.00
2018-07-15T10:21:01.568Z,21.00
2018-07-15T10:23:35.481Z,21.10
2018-07-15T10:26:07.966Z,21.40
2018-07-15T10:31:12.960Z,21.70
2018-07-15T10:33:45.384Z,21.90
2018-07-15T10:36:17.827Z,22.10
2018-07-15T10:38:50.547Z,21.90
2018-07-15T10:41:23.156Z,21.70
2018-07-15T10:43:55.740Z,21.40
2018-07-15T10:46:28.658Z,21.60
2018-07-15T10:49:01.818Z,21.70
2018-07-15T10:51:35.200Z,21.80
2018-07-15T10:54:09.559Z,21.90
2018-07-15T10:56:45.499Z,22.00
2018-07-15T10:59:17.940Z,21.90
2018-07-15T11:01:50.533Z,22.00
2018-07-15T11:04:22.981Z,22.00
2018-07-15T11:07:01.165Z,22.10
2018-07-15T11:09:33.740Z,22.30
2018-07-15T11:12:06.506Z,22.30
2018-07-15T11:14:38.951Z,22.20
2018-07-15T11:17:11.552Z,22.20
2018-07-15T11:19:43.934Z,22.00
2018-07-15T11:22:16.489Z,22.00
2018-07-15T11:24:48.943Z,22.10
2018-07-15T11:27:21.393Z,22.10
2018-07-15T11:29:53.843Z,22.10
2018-07-15T11:32:26.323Z,22.20
2018-07-15T11:34:59.171Z,22.40
2018-07-15T11:37:31.614Z,22.50
2018-07-15T11:40:04.801Z,22.50
2018-07-15T11:42:37.212Z,22.80
2018-07-15T11:45:09.788Z,22.50
2018-07-15T11:47:42.248Z,22.10
2018-07-15T11:50:14.716Z,21.90
2018-07-15T11:52:48.458Z,22.50
2018-07-15T11:55:20.996Z,22.90
2018-07-15T12:00:25.847Z,23.30
2018-07-15T12:02:58.656Z,23.20
2018-07-15T12:05:31.078Z,23.30
2018-07-15T12:08:03.573Z,23.30
2018-07-15T12:10:36.148Z,23.10
2018-07-15T12:13:08.654Z,23.00
2018-07-15T12:15:41.146Z,23.10
2018-07-15T12:18:13.727Z,23.10
2018-07-15T12:20:46.232Z,23.10
2018-07-15T12:23:18.662Z,23.50
2018-07-15T12:25:51.417Z,23.70
2018-07-15T12:28:23.876Z,23.40
2018-07-15T12:30:56.385Z,23.60
2018-07-15T12:33:28.869Z,24.00
2018-07-15T12:36:01.341Z,24.10
2018-07-15T12:38:33.988Z,23.80
2018-07-15T12:41:06.501Z,23.80
2018-07-15T12:43:39.005Z,23.90
2018-07-15T12:46:11.564Z,23.90
2018-07-15T12:48:44.039Z,23.90
2018-07-15T12:51:16.539Z,23.80
2018-07-15T12:53:49.124Z,23.70
2018-07-15T12:56:21.586Z,23.20
2018-07-15T12:58:54.095Z,23.30
2018-07-15T13:01:26.644Z,23.30
2018-07-15T13:03:59.088Z,23.20
2018-07-15T13:06:31.843Z,23.40
2018-07-15T13:09:04.861Z,23.60
2018-07-15T13:11:37.383Z,23.50
2018-07-15T13:14:10.555Z,23.60
2018-07-15T13:16:42.990Z,24.00
2018-07-15T13:19:15.488Z,24.00
2018-07-15T13:21:47.980Z,24.00
2018-07-15T13:24:21.062Z,24.00
2018-07-15T13:26:53.711Z,24.00
2018-07-15T13:29:26.298Z,24.30
2018-07-15T13:31:59.188Z,24.50
2018-07-15T13:34:32.985Z,24.50
2018-07-15T13:37:05.466Z,24.50
2018-07-15T13:39:38.015Z,24.70
2018-07-15T13:42:10.687Z,24.60
2018-07-15T13:44:43.680Z,24.50
2018-07-15T13:47:16.553Z,24.10
2018-07-15T13:49:49.185Z,24.10
2018-07-15T13:52:21.935Z,24.20
2018-07-15T13:54:56.200Z,24.30
2018-07-15T13:57:29.118Z,24.50
2018-07-15T14:00:01.831Z,24.50
2018-07-15T14:05:10.758Z,25.00
2018-07-15T14:07:43.309Z,25.00
2018-07-15T14:10:19.087Z,24.80
2018-07-15T14:12:51.639Z,24.70
2018-07-15T14:15:24.162Z,24.60
2018-07-15T14:20:29.432Z,24.40
2018-07-15T14:23:01.981Z,24.50
2018-07-15T14:25:34.783Z,24.50
2018-07-15T14:28:07.195Z,24.50
2018-07-15T14:30:39.736Z,24.50
2018-07-15T14:33:14.567Z,24.50
2018-07-15T14:35:50.319Z,24.40
2018-07-15T14:38:22.760Z,24.60
2018-07-15T14:40:55.232Z,24.60
2018-07-15T14:43:27.831Z,24.80
2018-07-15T14:46:00.532Z,24.80
2018-07-15T14:48:34.087Z,24.60
2018-07-15T14:51:07.050Z,24.70
2018-07-15T14:53:39.493Z,25.00
2018-07-15T14:56:13.279Z,25.00
2018-07-15T14:58:45.873Z,25.10
2018-07-15T15:01:18.374Z,24.90
2018-07-15T15:03:50.843Z,24.90
2018-07-15T15:06:23.304Z,24.90
2018-07-15T15:08:55.801Z,24.90
2018-07-15T15:14:00.686Z,24.90
2018-07-15T15:16:33.196Z,24.80
2018-07-15T15:19:05.701Z,24.60
2018-07-15T15:24:10.732Z,24.50
2018-07-15T15:26:43.161Z,24.70
2018-07-15T15:29:15.865Z,24.60
2018-07-15T15:31:48.446Z,24.60
2018-07-15T15:34:21.134Z,24.50
2018-07-15T15:36:53.851Z,24.50
2018-07-15T15:39:26.365Z,24.50
2018-07-15T15:41:58.830Z,24.50
2018-07-15T15:44:32.166Z,24.70
2018-07-15T15:47:04.867Z,24.80
2018-07-15T15:49:37.398Z,24.70
2018-07-15T15:52:09.953Z,24.40
2018-07-15T15:54:42.639Z,24.50
2018-07-15T15:57:15.160Z,24.50
2018-07-15T15:59:48.208Z,24.60
2018-07-15T16:02:20.995Z,24.60
2018-07-15T16:04:53.499Z,24.60
2018-07-15T16:07:26.107Z,24.60
2018-07-15T16:09:58.911Z,24.60
2018-07-15T16:12:31.420Z,24.60
2018-07-15T16:15:04.074Z,24.60
2018-07-15T16:17:36.596Z,24.60
2018-07-15T16:20:16.235Z,24.50
2018-07-15T16:31:11.510Z,24.20
2018-07-15T16:33:43.974Z,24.30
2018-07-15T16:36:16.492Z,24.30
2018-07-15T16:38:48.925Z,24.40
2018-07-15T16:41:21.420Z,24.40
2018-07-15T16:43:53.954Z,24.40
2018-07-15T16:46:26.444Z,24.50
2018-07-15T16:48:58.980Z,24.60
2018-07-15T16:51:31.432Z,24.60
2018-07-15T16:54:04.133Z,24.50
2018-07-15T16:56:36.584Z,24.40
2018-07-15T16:59:09.649Z,24.40
2018-07-15T17:01:42.582Z,24.50
2018-07-15T17:04:15.934Z,24.20
2018-07-15T17:06:48.640Z,24.00
2018-07-15T17:09:21.081Z,23.90
2018-07-15T17:11:53.876Z,23.90
2018-07-15T17:14:26.449Z,24.00
2018-07-15T17:16:59.019Z,24.20
2018-07-15T17:19:31.628Z,24.20
2018-07-15T17:22:04.160Z,24.20
2018-07-15T17:24:36.957Z,24.20
2018-07-15T17:27:10.025Z,24.20
2018-07-15T17:29:42.583Z,24.20
2018-07-15T17:32:15.148Z,24.10
2018-07-15T17:34:47.646Z,24.10
2018-07-15T17:37:20.251Z,24.10
2018-07-15T17:39:52.674Z,24.10
2018-07-15T17:42:25.303Z,24.10
2018-07-15T17:44:57.803Z,23.90
2018-07-15T17:47:30.281Z,23.80
2018-07-15T17:50:02.958Z,23.80
2018-07-15T17:52:35.423Z,23.80
2018-07-15T17:55:08.452Z,23.80
2018-07-15T17:57:41.029Z,23.80
2018-07-15T18:00:13.548Z,23.70
2018-07-15T18:02:45.955Z,23.60
2018-07-15T18:05:18.408Z,23.60
2018-07-15T18:07:50.838Z,23.60
2018-07-15T18:10:25.682Z,23.60
2018-07-15T18:12:58.337Z,23.60
2018-07-15T18:15:31.162Z,23.60
2018-07-15T18:18:05.157Z,23.50
2018-07-15T18:20:38.587Z,23.50
2018-07-15T18:23:11.268Z,23.50
2018-07-15T18:25:43.702Z,23.50
2018-07-15T18:28:16.207Z,23.50
2018-07-15T18:30:48.951Z,23.50
2018-07-15T18:33:22.295Z,23.40
2018-07-15T18:35:54.766Z,23.50
2018-07-15T18:41:00.969Z,23.40
2018-07-15T18:43:33.762Z,23.30
2018-07-15T18:46:06.250Z,23.20
2018-07-15T18:48:38.803Z,23.20
2018-07-15T18:51:11.399Z,23.20
2018-07-15T18:53:43.895Z,23.10
2018-07-15T19:01:24.656Z,23.00
2018-07-15T19:03:57.098Z,22.90
2018-07-15T19:06:29.513Z,22.90
2018-07-15T19:09:02.192Z,22.80
2018-07-15T19:11:35.438Z,22.70
2018-07-15T19:14:08.082Z,22.60
2018-07-15T19:16:40.558Z,22.60
2018-07-15T19:19:13.137Z,22.50
2018-07-15T19:21:48.591Z,22.50
2018-07-15T19:26:53.626Z,22.30
2018-07-15T19:29:26.343Z,22.30
2018-07-15T19:31:58.835Z,22.20
2018-07-15T19:34:31.275Z,22.20
2018-07-15T19:37:03.784Z,22.10
2018-07-15T19:39:36.272Z,22.00
2018-07-15T19:42:08.925Z,22.00
2018-07-15T19:44:43.158Z,21.90
2018-07-15T19:47:15.702Z,21.80
2018-07-15T19:49:48.780Z,21.70
2018-07-15T19:54:54.164Z,21.60
2018-07-15T19:57:26.830Z,21.60
2018-07-15T19:59:59.408Z,21.60
2018-07-15T20:02:32.988Z,21.50
2018-07-15T20:05:06.082Z,21.50
2018-07-15T20:07:38.835Z,21.40
2018-07-15T20:10:11.556Z,21.40
2018-07-15T20:12:44.336Z,21.40
2018-07-15T20:15:17.112Z,21.30
2018-07-15T20:17:49.749Z,21.20
2018-07-15T20:20:22.452Z,21.20
2018-07-15T20:22:55.686Z,21.20
2018-07-15T20:25:28.562Z,21.10
2018-07-15T20:28:01.353Z,21.00
2018-07-15T20:30:36.954Z,21.00
2018-07-15T20:33:09.650Z,21.00
2018-07-15T20:35:42.277Z,20.90
2018-07-15T20:38:14.771Z,20.80
2018-07-15T20:40:47.226Z,20.80
2018-07-15T20:45:52.186Z,20.70
2018-07-15T20:48:24.644Z,20.70
2018-07-15T20:50:57.256Z,20.60
2018-07-15T20:53:29.827Z,20.60
2018-07-15T20:56:02.573Z,20.50
2018-07-15T20:58:35.526Z,20.60
2018-07-15T21:01:08.012Z,20.60
2018-07-15T21:03:40.523Z,20.50
2018-07-15T21:06:12.976Z,20.50
2018-07-15T21:08:45.383Z,20.50
2018-07-15T21:11:18.124Z,20.50
2018-07-15T21:13:50.593Z,20.40
2018-07-15T21:16:23.007Z,20.40
2018-07-15T21:18:55.673Z,20.40
2018-07-15T21:26:33.183Z,20.40
2018-07-15T21:29:05.628Z,20.30
2018-07-15T21:31:38.087Z,20.30
2018-07-15T21:34:10.539Z,20.20
2018-07-15T21:36:43.359Z,20.20
2018-07-15T21:39:15.818Z,20.20
2018-07-15T21:41:48.333Z,20.20
2018-07-15T21:46:53.385Z,20.10
2018-07-15T21:49:25.844Z,20.10
2018-07-15T21:51:58.587Z,20.10
2018-07-15T21:54:31.136Z,20.00
2018-07-15T21:57:03.705Z,20.00
2018-07-15T21:59:36.215Z,20.00
2018-07-15T22:02:09.470Z,20.00
2018-07-15T22:04:42.024Z,19.90
2018-07-15T22:07:25.932Z,19.80
2018-07-15T22:10:26.444Z,19.90
2018-07-15T22:12:58.916Z,19.80
2018-07-15T22:15:31.566Z,19.70
2018-07-15T22:18:04.073Z,19.70
2018-07-15T22:20:37.000Z,19.70
2018-07-15T22:23:09.495Z,19.60
2018-07-15T22:25:42.050Z,19.60
2018-07-15T22:28:14.465Z,19.60
2018-07-15T22:30:46.899Z,19.60
2018-07-15T22:33:19.352Z,19.60
2018-07-15T22:35:51.747Z,19.30
2018-07-15T22:38:24.494Z,19.10
2018-07-15T22:40:56.910Z,19.10
2018-07-15T22:43:29.358Z,19.00
2018-07-15T22:46:03.128Z,19.00
2018-07-15T22:48:35.717Z,18.90
2018-07-15T22:51:08.142Z,18.80
2018-07-15T22:53:40.648Z,18.80
2018-07-15T22:58:45.563Z,18.70
2018-07-15T23:01:18.006Z,18.70
2018-07-15T23:03:50.463Z,18.70
2018-07-15T23:06:22.885Z,18.70
2018-07-15T23:11:27.756Z,18.70
2018-07-15T23:14:00.190Z,18.80
2018-07-15T23:19:05.021Z,18.80
2018-07-15T23:21:37.416Z,18.70
2018-07-15T23:24:09.926Z,18.70
2018-07-15T23:26:44.372Z,18.60
2018-07-15T23:31:49.268Z,18.60
2018-07-15T23:34:21.969Z,18.50
2018-07-15T23:36:54.477Z,18.50
2018-07-15T23:41:59.613Z,18.40
2018-07-15T23:47:05.654Z,18.30
2018-07-15T23:49:38.127Z,18.30
2018-07-15T23:52:10.588Z,18.30
2018-07-15T23:54:43.025Z,18.20
2018-07-15T23:57:15.504Z,18.20
2018-07-15T23:59:47.945Z,18.20
